Time;durP1;ratioP1;P1;durP2;ratioP2;P2;SDS_P1;SDS_P2;PMS_P1;PMS_P2;Temp;Humidity;BMP_temperature;BMP_pressure;BME280_temperature;BME280_humidity;BME280_pressure;Samples;Min_cycle;Max_cycle;Signal;HPM_P1;HPM_P2
2022/05/06 00:01:55;;;;;;;1.45;0.30;;;;;;;16.36;100.00;100188.94;5010154;28;20058;-79
2022/05/06 00:04:24;;;;;;;0.70;0.40;;;;;;;16.48;100.00;100204.56;5010200;28;20141;-79
2022/05/06 00:06:54;;;;;;;0.28;0.10;;;;;;;16.56;100.00;100207.16;5010392;28;20061;-80
2022/05/06 00:09:22;;;;;;;0.73;0.20;;;;;;;16.63;78.84;100207.97;5010446;28;20112;-79
2022/05/06 00:11:51;;;;;;;2.67;0.30;;;;;;;16.71;76.40;100216.66;5010669;28;20506;-77
2022/05/06 00:14:20;;;;;;;1.10;0.28;;;;;;;16.76;74.78;100218.38;5009904;28;20045;-75
2022/05/06 00:16:48;;;;;;;1.40;0.35;;;;;;;16.86;74.50;100231.41;5010347;28;20100;-76
2022/05/06 00:19:17;;;;;;;1.83;0.50;;;;;;;16.86;74.28;100232.31;5010471;28;20129;-78
2022/05/06 00:21:45;;;;;;;0.93;0.25;;;;;;;16.91;70.48;100241.00;4990502;28;20141;-75
2022/05/06 00:24:15;;;;;;;1.50;0.40;;;;;;;16.98;73.12;100254.03;4991127;28;20530;-75
2022/05/06 00:26:43;;;;;;;1.67;0.88;;;;;;;17.07;70.24;100249.63;4992940;28;20506;-74
2022/05/06 00:29:12;;;;;;;0.88;0.25;;;;;;;17.13;69.24;100246.09;4990832;28;20054;-77
2022/05/06 00:31:40;;;;;;;2.15;0.50;;;;;;;17.12;67.32;100244.38;4990692;28;20122;-76
2022/05/06 00:34:10;;;;;;;0.32;0.10;;;;;;;17.13;64.83;100254.84;4993364;28;20125;-76
2022/05/06 00:36:38;;;;;;;1.63;0.25;;;;;;;17.13;63.91;100253.94;5010227;28;20054;-76
2022/05/06 00:39:07;;;;;;;1.83;0.22;;;;;;;17.15;66.10;100253.06;5010188;28;20046;-74
2022/05/06 00:41:37;;;;;;;0.43;0.13;;;;;;;17.12;63.10;100257.44;5010163;28;20049;-74
2022/05/06 00:44:07;;;;;;;0.50;0.17;;;;;;;17.11;65.26;100266.16;5010200;28;20120;-75
2022/05/06 00:46:38;;;;;;;0.80;0.38;;;;;;;17.14;66.26;100281.84;5009474;28;20411;-73
2022/05/06 00:49:08;;;;;;;0.20;0.10;;;;;;;17.08;62.45;100281.84;5009942;28;20058;-75
2022/05/06 00:51:38;;;;;;;1.50;0.68;;;;;;;16.98;62.86;100285.41;5009523;28;20056;-75
2022/05/06 00:54:06;;;;;;;1.08;0.20;;;;;;;16.91;62.26;100285.41;5009011;28;20137;-75
2022/05/06 00:56:37;;;;;;;0.40;0.20;;;;;;;16.89;60.53;100292.38;5008952;28;20061;-77
2022/05/06 00:59:05;;;;;;;1.13;0.38;;;;;;;16.82;61.99;100298.50;5007736;28;20049;-75
2022/05/06 01:01:34;;;;;;;1.85;0.28;;;;;;;16.80;61.45;100295.03;5009641;28;20109;-75
2022/05/06 01:04:06;;;;;;;1.45;0.55;;;;;;;16.72;60.13;100302.88;5009555;28;20056;-75
2022/05/06 01:06:35;;;;;;;;;;;;;;;16.68;60.37;100310.72;5010403;28;20060;-76
2022/05/06 01:09:03;;;;;;;2.15;0.70;;;;;;;16.62;60.57;100315.97;5009707;28;19921;-76
2022/05/06 01:11:34;;;;;;;1.23;0.40;;;;;;;16.53;59.29;100322.94;5009363;28;20081;-75
2022/05/06 01:14:04;;;;;;;2.47;0.43;;;;;;;16.50;59.86;100342.97;5008743;28;20054;-77
2022/05/06 01:16:36;;;;;;;0.85;0.35;;;;;;;16.43;57.54;100323.81;5009805;28;20050;-75
2022/05/06 01:19:05;;;;;;;2.67;0.57;;;;;;;16.34;58.14;100331.66;5010642;28;20046;-75
2022/05/06 01:21:38;;;;;;;1.55;0.70;;;;;;;16.29;58.67;100331.69;5010935;28;20046;-77
2022/05/06 01:24:08;;;;;;;3.17;0.65;;;;;;;16.24;58.84;100338.66;5009259;28;20157;-77
2022/05/06 01:27:01;;;;;;;0.20;0.20;;;;;;;16.20;58.77;100341.25;5009735;28;20054;-76
2022/05/06 01:29:31;;;;;;;1.65;0.52;;;;;;;16.11;58.93;100350.81;5009600;28;20526;-76
2022/05/06 01:32:00;;;;;;;2.03;0.55;;;;;;;16.04;58.66;100351.69;5008641;28;20049;-78
2022/05/06 01:34:32;;;;;;;0.82;0.35;;;;;;;15.96;59.43;100362.97;5009019;28;20141;-77
2022/05/06 01:37:04;;;;;;;1.30;0.40;;;;;;;15.84;59.53;100362.09;5009018;28;20093;-77
2022/05/06 01:39:36;;;;;;;0.88;0.50;;;;;;;15.79;61.32;100363.84;5010394;28;20045;-77
2022/05/06 01:42:07;;;;;;;0.52;0.40;;;;;;;15.75;61.10;100375.13;5008598;28;20133;-78
2022/05/06 01:44:40;;;;;;;0.43;0.20;;;;;;;15.73;59.18;100381.19;5009805;28;20104;-78
2022/05/06 01:47:16;;;;;;;1.38;0.55;;;;;;;15.63;60.22;100377.69;5008792;28;20057;-75
2022/05/06 01:49:45;;;;;;;2.45;0.50;;;;;;;15.44;59.04;100363.72;5009116;28;20061;-77
2022/05/06 01:52:17;;;;;;;0.90;0.40;;;;;;;15.46;58.97;100380.22;5009106;28;20078;-76
2022/05/06 01:54:48;;;;;;;0.57;0.40;;;;;;;15.41;59.52;100381.94;5009405;28;20049;-77
2022/05/06 01:57:16;;;;;;;2.03;0.40;;;;;;;15.36;60.80;100381.06;5008538;28;20045;-77
2022/05/06 01:59:45;;;;;;;2.22;0.30;;;;;;;15.29;60.40;100375.81;5008716;28;20125;-76
2022/05/06 02:02:13;;;;;;;0.55;0.20;;;;;;;15.22;60.38;100383.59;5008875;28;20058;-76
2022/05/06 02:07:27;;;;;;;4.15;0.40;;;;;;;15.04;60.26;100392.19;5008521;28;20060;-78
2022/05/06 02:09:57;;;;;;;0.85;0.32;;;;;;;15.02;61.58;100392.19;5008877;28;20048;-78
2022/05/06 02:12:25;;;;;;;1.15;0.50;;;;;;;15.00;59.22;100395.63;5008517;28;20269;-76
2022/05/06 02:14:54;;;;;;;0.68;0.28;;;;;;;14.95;59.72;100394.75;5011433;28;20049;-76
2022/05/06 02:17:22;;;;;;;0.95;0.20;;;;;;;14.90;59.54;100383.44;5009080;28;20092;-77
2022/05/06 02:19:50;;;;;;;1.35;0.50;;;;;;;14.82;60.01;100379.06;5009107;28;20128;-77
2022/05/06 02:22:19;;;;;;;0.77;0.25;;;;;;;14.78;61.25;100395.53;5008699;28;20145;-76
2022/05/06 02:24:47;;;;;;;1.30;0.32;;;;;;;14.71;60.82;100395.47;5009514;28;20065;-76
2022/05/06 02:27:18;;;;;;;1.08;0.35;;;;;;;14.58;62.26;100394.50;5011967;28;20042;-76
2022/05/06 02:35:13;;;;;;;0.82;0.40;;;;;;;14.33;62.28;100389.06;5012415;28;20057;-79
2022/05/06 02:37:41;;;;;;;0.32;0.20;;;;;;;14.35;63.10;100408.19;5012970;28;20104;-77
2022/05/06 02:40:11;;;;;;;0.85;0.13;;;;;;;14.28;63.79;100408.13;5012469;28;20066;-78
2022/05/06 02:42:41;;;;;;;0.50;0.30;;;;;;;14.20;63.78;100408.03;5012757;28;20050;-77
2022/05/06 02:45:10;;;;;;;1.70;0.20;;;;;;;14.10;64.47;100406.22;5012621;28;20053;-78
2022/05/06 02:47:39;;;;;;;1.38;0.50;;;;;;;13.99;64.53;100409.56;5012650;28;20041;-78
2022/05/06 02:50:08;;;;;;;0.10;0.10;;;;;;;13.89;65.00;100415.56;5012241;28;20089;-77
2022/05/06 02:52:37;;;;;;;0.15;0.10;;;;;;;13.80;65.63;100413.72;5012050;28;20161;-77
2022/05/06 02:55:06;;;;;;;1.38;0.20;;;;;;;13.73;66.32;100416.25;5012360;28;20060;-77
2022/05/06 02:57:34;;;;;;;0.73;0.10;;;;;;;13.64;66.64;100432.59;5013075;28;20049;-79
2022/05/06 03:00:05;;;;;;;2.70;0.25;;;;;;;13.58;67.08;100433.41;5012409;28;20060;-78
2022/05/06 03:02:33;;;;;;;0.95;0.10;;;;;;;13.54;68.39;100435.97;5012561;28;20049;-76
2022/05/06 03:05:02;;;;;;;0.35;0.10;;;;;;;13.53;68.51;100445.47;5011919;28;20149;-79
2022/05/06 03:07:30;;;;;;;0.22;0.10;;;;;;;13.50;69.24;100441.97;5011638;28;20057;-76
2022/05/06 03:09:58;;;;;;;1.58;0.22;;;;;;;13.43;68.69;100443.63;5013593;28;20052;-77
2022/05/06 03:12:29;;;;;;;0.30;0.10;;;;;;;13.39;68.69;100432.28;5013166;28;20064;-77
2022/05/06 03:14:57;;;;;;;2.42;0.32;;;;;;;13.36;69.04;100434.00;5012133;28;20052;-78
2022/05/06 03:17:27;;;;;;;0.20;0.20;;;;;;;13.36;70.08;100439.19;5012148;28;20514;-76
2022/05/06 03:19:56;;;;;;;2.20;0.10;;;;;;;13.35;70.48;100443.53;5011927;28;20093;-77
2022/05/06 03:22:24;;;;;;;0.20;0.10;;;;;;;13.33;69.65;100459.94;5011678;28;20046;-77
2022/05/06 03:24:53;;;;;;;0.10;0.10;;;;;;;13.29;69.54;100456.44;5012144;28;20073;-75
2022/05/06 03:30:08;;;;;;;0.35;0.20;;;;;;;13.20;70.89;100462.34;5011979;28;20588;-77
2022/05/06 03:32:38;;;;;;;1.15;0.30;;;;;;;13.14;70.94;100467.44;5011563;28;20060;-76
2022/05/06 03:35:08;;;;;;;0.13;0.10;;;;;;;13.08;71.79;100464.78;5011141;28;20205;-75
2022/05/06 03:37:38;;;;;;;0.10;0.10;;;;;;;13.04;71.59;100464.69;5010822;28;20132;-77
2022/05/06 03:40:07;;;;;;;0.38;0.30;;;;;;;12.99;71.95;100462.03;5011469;28;20060;-76
2022/05/06 03:42:35;;;;;;;1.17;0.30;;;;;;;12.95;72.55;100465.44;5011031;28;20061;-76
2022/05/06 03:45:04;;;;;;;0.50;0.10;;;;;;;12.93;72.67;100456.75;5011664;28;20052;-76
2022/05/06 03:47:32;;;;;;;1.92;0.15;;;;;;;12.89;72.88;100461.00;5012024;28;20088;-77
2022/05/06 03:52:49;;;;;;;0.03;0.00;;;;;;;12.88;73.30;100468.78;5011199;28;20069;-75
2022/05/06 03:55:18;;;;;;;0.45;0.20;;;;;;;12.87;74.15;100467.03;5011509;28;20053;-78
2022/05/06 03:57:46;;;;;;;1.60;0.35;;;;;;;12.85;73.88;100463.53;5011105;28;20045;-77
2022/05/06 04:00:17;;;;;;;3.88;0.30;;;;;;;12.82;73.43;100463.50;5010958;28;20057;-77
2022/05/06 04:02:45;;;;;;;1.27;0.20;;;;;;;12.78;72.81;100462.56;5011009;28;20056;-78
2022/05/06 04:05:15;;;;;;;0.43;0.13;;;;;;;12.73;73.32;100465.06;5011396;28;20053;-76
2022/05/06 04:07:44;;;;;;;0.30;0.10;;;;;;;12.70;73.38;100459.84;5013785;28;20045;-77
2022/05/06 04:10:12;;;;;;;1.30;0.32;;;;;;;12.70;73.11;100458.97;5010277;28;20048;-76
2022/05/06 04:12:40;;;;;;;0.47;0.28;;;;;;;12.70;73.95;100475.41;5011776;28;20132;-75
2022/05/06 04:15:09;;;;;;;1.30;0.32;;;;;;;12.69;73.28;100478.88;5010422;28;20045;-75
2022/05/06 04:17:38;;;;;;;0.68;0.20;;;;;;;12.65;72.86;100476.22;5011102;28;20081;-77
2022/05/06 04:25:39;;;;;;;0.65;0.30;;;;;;;12.55;72.62;100469.97;5011193;28;20056;-76
2022/05/06 04:28:08;;;;;;;0.85;0.30;;;;;;;12.53;73.23;100467.38;5010636;28;20135;-75
2022/05/06 04:30:36;;;;;;;0.52;0.20;;;;;;;12.53;73.23;100476.88;5009926;28;20140;-76
2022/05/06 04:33:04;;;;;;;0.28;0.20;;;;;;;12.52;72.83;100490.69;5009938;28;20510;-77
2022/05/06 04:35:33;;;;;;;0.35;0.22;;;;;;;12.51;72.78;100488.97;5010059;28;20129;-77
2022/05/06 04:38:10;;;;;;;0.43;0.25;;;;;;;12.41;73.11;100505.19;5009921;28;20053;-75
2022/05/06 04:40:38;;;;;;;0.25;0.10;;;;;;;12.33;73.12;100508.53;5010531;28;20129;-76
2022/05/06 04:43:07;;;;;;;2.60;0.35;;;;;;;12.28;73.58;100499.78;5009228;28;20046;-75
2022/05/06 04:45:38;;;;;;;0.68;0.40;;;;;;;12.23;75.69;100498.84;5010359;28;20050;-77
2022/05/06 04:48:08;;;;;;;0.37;0.20;;;;;;;12.19;76.62;100497.03;5009653;28;20080;-76
2022/05/06 04:50:37;;;;;;;2.72;0.20;;;;;;;12.20;80.02;100496.16;5008613;28;20049;-77
2022/05/06 04:53:08;;;;;;;2.63;0.32;;;;;;;12.22;80.87;100496.22;5009513;28;20123;-76
2022/05/06 04:55:37;;;;;;;0.73;0.40;;;;;;;12.21;79.19;100495.34;5010039;28;20100;-77
2022/05/06 04:58:06;;;;;;;3.50;0.45;;;;;;;12.24;80.42;100495.38;5009854;28;20041;-76
2022/05/06 05:00:35;;;;;;;0.82;0.30;;;;;;;12.25;80.13;100497.13;5010068;28;20050;-76
2022/05/06 05:03:04;;;;;;;1.17;0.30;;;;;;;12.24;80.01;100500.56;5010370;28;20054;-75
2022/05/06 05:05:32;;;;;;;0.80;0.45;;;;;;;12.19;79.50;100503.94;5009982;28;20060;-75
2022/05/06 05:08:01;;;;;;;0.52;0.20;;;;;;;12.12;82.62;100510.72;5009888;28;20045;-74
2022/05/06 05:10:48;;;;;;;0.80;0.32;;;;;;;12.02;98.71;100506.19;4762885;27;9372968;-75
2022/05/06 05:13:16;;;;;;;;;;;;;;;11.92;100.00;100508.59;5066125;28;20399;-75
2022/05/06 05:15:44;;;;;;;1.70;0.30;;;;;;;11.84;100.00;100504.97;5066920;28;20020;-75
2022/05/06 05:18:13;;;;;;;1.70;0.40;;;;;;;11.78;100.00;100497.06;5065900;28;20055;-75
2022/05/06 05:20:41;;;;;;;0.25;0.20;;;;;;;11.74;100.00;100497.84;5066198;28;20051;-75
2022/05/06 05:23:09;;;;;;;3.30;0.10;;;;;;;11.72;100.00;100495.19;5064894;28;20087;-75
2022/05/06 05:25:38;;;;;;;0.38;0.20;;;;;;;11.70;100.00;100496.00;5066131;28;20051;-78
2022/05/06 05:28:08;;;;;;;2.75;0.50;;;;;;;11.71;100.00;100503.81;5065297;28;20053;-78
2022/05/06 05:30:36;;;;;;;3.03;0.30;;;;;;;11.74;100.00;100505.59;5065825;28;20049;-76
2022/05/06 05:33:05;;;;;;;1.00;0.28;;;;;;;11.77;100.00;100513.44;5065297;28;20059;-78
2022/05/06 05:35:33;;;;;;;0.70;0.10;;;;;;;11.81;100.00;100512.66;5065311;28;20048;-77
2022/05/06 05:38:02;;;;;;;3.50;0.30;;;;;;;11.86;100.00;100508.44;5065564;28;20124;-77
2022/05/06 05:40:30;;;;;;;0.60;0.22;;;;;;;11.91;100.00;100517.25;5064653;28;20053;-76
2022/05/06 05:42:58;;;;;;;0.32;0.10;;;;;;;11.94;100.00;100517.28;5064231;28;20049;-75
2022/05/06 05:48:22;;;;;;;1.50;0.40;;;;;;;11.98;100.00;100494.00;5064761;28;20060;-76
2022/05/06 05:50:51;;;;;;;0.95;0.20;;;;;;;11.95;100.00;100519.03;5052616;28;20053;-78
2022/05/06 05:53:21;;;;;;;0.65;0.20;;;;;;;11.89;100.00;100505.09;5044993;28;20049;-76
2022/05/06 05:55:49;;;;;;;0.10;0.10;;;;;;;11.82;100.00;100510.94;5044689;28;20107;-75
2022/05/06 05:58:17;;;;;;;0.10;0.10;;;;;;;11.72;100.00;100496.91;5045056;28;20064;-77
2022/05/06 06:00:48;;;;;;;0.22;0.20;;;;;;;11.66;100.00;100494.19;5049251;28;20567;-74
2022/05/06 06:03:16;;;;;;;0.10;0.10;;;;;;;11.60;100.00;100488.91;5044704;28;20490;-75
2022/05/06 06:05:45;;;;;;;1.55;0.30;;;;;;;11.56;100.00;100484.50;5045370;28;20049;-80
2022/05/06 06:08:14;;;;;;;2.42;0.43;;;;;;;11.52;100.00;100494.81;5045316;28;20053;-75
2022/05/06 06:10:42;;;;;;;1.75;0.43;;;;;;;11.51;100.00;100490.44;5045241;28;20067;-77
2022/05/06 06:13:10;;;;;;;4.38;0.68;;;;;;;11.52;100.00;100492.22;5044704;28;20045;-76
2022/05/06 06:15:39;;;;;;;0.25;0.10;;;;;;;11.53;100.00;100493.94;5044801;28;20144;-76
2022/05/06 06:18:09;;;;;;;4.22;0.38;;;;;;;11.56;100.00;100482.78;5044842;28;20128;-78
2022/05/06 06:20:38;;;;;;;0.10;0.10;;;;;;;11.61;100.00;100482.88;5038890;28;20057;-75
2022/05/06 06:23:07;;;;;;;1.05;0.40;;;;;;;11.60;100.00;100488.91;5030872;28;20072;-76
2022/05/06 06:25:35;;;;;;;0.60;0.30;;;;;;;11.54;100.00;100494.81;5031469;28;20052;-76
2022/05/06 06:28:03;;;;;;;1.67;0.20;;;;;;;11.52;100.00;100492.22;5031096;28;20049;-78
2022/05/06 06:30:32;;;;;;;0.20;0.15;;;;;;;11.55;100.00;100487.94;5031687;28;20148;-77
2022/05/06 06:33:00;;;;;;;2.05;0.30;;;;;;;11.60;100.00;100483.72;5030765;28;20059;-78
2022/05/06 06:35:30;;;;;;;0.68;0.15;;;;;;;11.65;100.00;100488.16;5030641;28;20045;-77
2022/05/06 06:38:00;;;;;;;0.38;0.28;;;;;;;11.69;100.00;100486.50;5030664;28;20051;-77
2022/05/06 06:40:28;;;;;;;0.20;0.15;;;;;;;11.69;100.00;100489.09;5030827;28;20049;-78
2022/05/06 06:43:02;;;;;;;0.10;0.10;;;;;;;11.67;100.00;100490.78;5030857;28;20053;-76
2022/05/06 06:45:30;;;;;;;0.55;0.20;;;;;;;11.61;100.00;100490.63;5030560;28;20053;-76
2022/05/06 06:48:00;;;;;;;2.28;0.30;;;;;;;11.55;100.00;100495.72;5030543;28;20050;-74
2022/05/06 06:50:30;;;;;;;1.27;0.20;;;;;;;11.51;100.00;100495.63;5031338;28;20049;-78
2022/05/06 06:52:59;;;;;;;0.40;0.40;;;;;;;11.50;100.00;100483.53;5030937;28;20049;-75
2022/05/06 06:55:28;;;;;;;0.10;0.10;;;;;;;11.55;100.00;100486.22;5032780;28;20054;-79
2022/05/06 06:57:56;;;;;;;1.40;0.25;;;;;;;11.60;100.00;100479.41;5032529;28;20128;-77
2022/05/06 07:00:25;;;;;;;0.25;0.10;;;;;;;11.65;100.00;100484.69;5030639;28;20041;-76
2022/05/06 07:02:55;;;;;;;0.10;0.10;;;;;;;11.66;100.00;100489.91;5031538;28;20056;-75
2022/05/06 07:05:24;;;;;;;0.30;0.10;;;;;;;11.67;100.00;100483.88;5030539;28;20049;-76
2022/05/06 07:13:21;;;;;;;0.77;0.30;;;;;;;11.68;100.00;100479.56;5028826;28;20052;-76
2022/05/06 07:15:49;;;;;;;3.10;0.38;;;;;;;11.60;100.00;100482.00;5030501;28;20509;-76
2022/05/06 07:18:18;;;;;;;0.68;0.20;;;;;;;11.56;100.00;100477.59;5030248;28;20045;-79
2022/05/06 07:20:46;;;;;;;2.28;0.20;;;;;;;11.49;100.00;100465.34;5030329;28;20521;-77
2022/05/06 07:23:16;;;;;;;0.40;0.20;;;;;;;11.58;100.00;100481.09;5030246;28;20054;-77
2022/05/06 07:25:44;;;;;;;0.95;0.25;;;;;;;11.58;100.00;100483.69;5030688;28;20049;-79
2022/05/06 07:28:13;;;;;;;0.30;0.20;;;;;;;11.59;100.00;100484.53;5030128;28;20132;-75
2022/05/06 07:30:41;;;;;;;0.43;0.30;;;;;;;11.61;100.00;100490.63;5030630;28;20144;-77
2022/05/06 07:33:09;;;;;;;0.20;0.20;;;;;;;11.61;100.00;100480.28;5029223;28;20050;-79
2022/05/06 07:35:38;;;;;;;0.50;0.20;;;;;;;11.57;100.00;100470.69;5030346;28;20049;-75
2022/05/06 07:38:07;;;;;;;1.20;0.40;;;;;;;11.57;100.00;100483.63;5029520;28;20070;-75
2022/05/06 07:40:37;;;;;;;1.58;0.20;;;;;;;11.53;100.00;100488.75;5029960;28;20053;-75
2022/05/06 07:43:05;;;;;;;2.17;0.60;;;;;;;11.48;100.00;100490.38;5029095;28;20079;-75
2022/05/06 07:45:34;;;;;;;0.60;0.20;;;;;;;11.45;100.00;100482.56;5030206;28;20125;-75
2022/05/06 07:48:04;;;;;;;2.80;0.28;;;;;;;11.47;100.00;100488.63;5029646;28;20482;-79
2022/05/06 07:50:32;;;;;;;0.10;0.10;;;;;;;11.42;100.00;100477.28;5030109;28;20099;-76
2022/05/06 07:53:01;;;;;;;3.50;0.28;;;;;;;11.50;100.00;100496.47;5033995;28;20128;-77
2022/05/06 07:55:29;;;;;;;0.15;0.10;;;;;;;11.48;100.00;100494.72;5030450;28;20047;-76
2022/05/06 07:57:59;;;;;;;1.23;0.20;;;;;;;11.47;100.00;100492.94;5030326;28;20084;-76
2022/05/06 08:00:28;;;;;;;3.40;0.47;;;;;;;11.48;100.00;100487.81;5029483;28;20049;-78
2022/05/06 08:05:43;;;;;;;0.20;0.10;;;;;;;11.54;100.00;100494.81;5030140;28;20060;-77
2022/05/06 08:08:11;;;;;;;0.40;0.30;;;;;;;11.51;100.00;100495.63;5029736;28;20110;-78
2022/05/06 08:10:46;;;;;;;0.43;0.30;;;;;;;11.49;100.00;100497.31;5029577;28;20068;-76
2022/05/06 08:13:17;;;;;;;0.40;0.13;;;;;;;11.44;100.00;100479.94;5028385;28;20052;-77
2022/05/06 08:15:46;;;;;;;0.40;0.20;;;;;;;11.40;100.00;100484.16;5029742;28;20053;-74
2022/05/06 08:18:14;;;;;;;0.28;0.22;;;;;;;11.40;100.00;100489.34;5029040;28;20095;-74
2022/05/06 08:20:43;;;;;;;1.52;0.32;;;;;;;11.39;100.00;100479.81;5029543;28;20510;-75
2022/05/06 08:23:11;;;;;;;0.32;0.22;;;;;;;11.33;100.00;100475.38;5028526;28;20052;-75
2022/05/06 08:25:39;;;;;;;0.60;0.30;;;;;;;11.27;100.00;100469.19;5029240;28;20524;-76
2022/05/06 08:28:08;;;;;;;0.80;0.20;;;;;;;11.24;100.00;100479.47;5028309;28;20195;-75
2022/05/06 08:30:38;;;;;;;3.53;0.20;;;;;;;11.22;100.00;100475.97;5028213;28;20053;-77
2022/05/06 08:33:07;;;;;;;1.30;0.38;;;;;;;11.21;100.00;100469.94;5029503;28;20065;-76
2022/05/06 08:35:35;;;;;;;0.30;0.20;;;;;;;11.23;100.00;100472.56;5028338;28;20795;-75
2022/05/06 08:38:03;;;;;;;1.27;0.30;;;;;;;11.22;100.00;100465.63;5030168;28;20052;-74
2022/05/06 08:40:32;;;;;;;0.30;0.30;;;;;;;11.23;100.00;100467.38;5029062;28;20041;-76
2022/05/06 08:43:00;;;;;;;0.30;0.30;;;;;;;11.25;100.00;100461.41;5028723;28;20081;-75
2022/05/06 08:51:03;;;;;;;0.38;0.20;;;;;;;11.15;100.00;100450.78;5031516;28;20517;-74
2022/05/06 08:53:33;;;;;;;2.65;0.40;;;;;;;11.08;100.00;100461.00;5028508;28;20053;-75
2022/05/06 08:56:04;;;;;;;0.50;0.20;;;;;;;11.06;100.00;100459.22;5029022;28;20049;-76
2022/05/06 08:58:34;;;;;;;1.25;0.22;;;;;;;11.07;100.00;100455.81;5029019;28;20052;-74
2022/05/06 09:01:04;;;;;;;0.28;0.28;;;;;;;11.03;100.00;100444.50;5028956;28;20134;-74
2022/05/06 09:03:34;;;;;;;0.10;0.10;;;;;;;11.06;100.00;100438.50;5028422;28;20053;-74
2022/05/06 09:06:03;;;;;;;3.25;0.30;;;;;;;11.09;100.00;100433.41;5028730;28;20072;-74
2022/05/06 09:08:38;;;;;;;3.00;0.22;;;;;;;11.08;100.00;100427.34;5028247;28;20049;-73
2022/05/06 09:11:09;;;;;;;0.73;0.10;;;;;;;11.09;100.00;100434.28;5014977;28;20064;-74
2022/05/06 09:13:38;;;;;;;1.17;0.30;;;;;;;11.02;100.00;100416.88;5008944;28;20046;-75
2022/05/06 09:19:19;;;;;;;1.00;0.30;;;;;;;11.15;100.00;100419.72;5009211;28;20057;-74
2022/05/06 09:22:06;;;;;;;0.93;0.30;;;;;;;11.18;100.00;100418.09;5008299;28;20050;-75
2022/05/06 09:24:42;;;;;;;0.75;0.30;;;;;;;11.15;100.00;100433.53;5008427;28;20060;-73
2022/05/06 09:27:12;;;;;;;0.10;0.10;;;;;;;11.13;100.00;100413.63;5008429;28;20043;-74
2022/05/06 09:29:42;;;;;;;2.63;0.30;;;;;;;11.13;100.00;100423.97;5009121;28;20057;-75
2022/05/06 09:32:22;;;;;;;2.92;0.38;;;;;;;11.10;100.00;100420.47;5008143;28;20100;-75
2022/05/06 09:34:54;;;;;;;0.20;0.10;;;;;;;11.01;100.00;100417.69;5005623;28;20050;-75
2022/05/06 09:37:38;;;;;;;0.87;0.40;;;;;;;10.95;100.00;100398.56;5008253;28;20050;-75
2022/05/06 09:40:10;;;;;;;2.17;0.55;;;;;;;11.00;100.00;100381.44;5017057;28;20057;-76
2022/05/06 09:42:39;;;;;;;0.73;0.30;;;;;;;11.00;100.00;100371.94;5028061;28;20057;-76
2022/05/06 09:45:09;;;;;;;1.17;0.30;;;;;;;11.01;100.00;100385.75;5031093;28;20105;-76
2022/05/06 09:47:38;;;;;;;1.55;0.35;;;;;;;11.02;100.00;100374.59;5030461;28;20121;-75
2022/05/06 09:50:11;;;;;;;0.35;0.30;;;;;;;10.98;100.00;100373.63;5028993;28;20055;-74
2022/05/06 09:52:39;;;;;;;0.20;0.20;;;;;;;10.95;100.00;100367.50;5028192;28;20131;-75
2022/05/06 09:55:08;;;;;;;0.10;0.10;;;;;;;10.95;100.00;100351.97;5020111;28;20049;-75
2022/05/06 09:57:38;;;;;;;1.02;0.35;;;;;;;10.97;100.00;100356.38;5010062;28;20042;-76
2022/05/06 10:00:08;;;;;;;0.85;0.30;;;;;;;10.96;100.00;100370.13;5011535;28;20042;-75
2022/05/06 10:02:37;;;;;;;0.95;0.40;;;;;;;10.94;100.00;100366.63;5011480;28;20057;-75
2022/05/06 10:05:06;;;;;;;0.60;0.30;;;;;;;10.96;100.00;100356.31;5012393;28;20820;-75
2022/05/06 10:07:38;;;;;;;1.67;0.43;;;;;;;10.98;100.00;100346.88;5031935;28;20045;-75
2022/05/06 10:10:12;;;;;;;0.20;0.20;;;;;;;11.01;100.00;100337.44;5024611;28;20064;-74
2022/05/06 10:12:44;;;;;;;0.98;0.30;;;;;;;11.00;100.00;100333.13;5011593;28;20448;-75
2022/05/06 10:15:14;;;;;;;0.40;0.20;;;;;;;11.00;100.00;100340.88;5011400;28;20049;-75
2022/05/06 10:17:53;;;;;;;2.28;0.20;;;;;;;10.97;100.00;100334.75;5012097;28;20060;-75
2022/05/06 10:21:00;;;;;;;0.13;0.13;;;;;;;10.94;100.00;100332.97;5011902;28;20076;-75
2022/05/06 10:23:53;;;;;;;0.50;0.30;;;;;;;10.93;100.00;100331.25;5012290;28;20442;-75
2022/05/06 10:26:41;;;;;;;0.75;0.30;;;;;;;10.94;100.00;100320.03;5013393;28;20061;-75
2022/05/06 10:35:11;;;;;;;3.42;0.52;;;;;;;10.98;100.00;100301.16;5011835;28;20084;-76
2022/05/06 10:37:43;;;;;;;0.25;0.20;;;;;;;11.01;100.00;100303.78;5011400;28;20146;-75
2022/05/06 10:40:35;;;;;;;6.40;0.47;;;;;;;11.02;100.00;100310.72;5011114;28;20049;-74
2022/05/06 10:43:04;;;;;;;1.65;0.63;;;;;;;11.03;100.00;100304.69;5014517;28;20885;-75
2022/05/06 10:45:34;;;;;;;0.95;0.43;;;;;;;11.03;100.00;100298.66;5011643;28;20129;-75
2022/05/06 10:48:03;;;;;;;1.38;0.63;;;;;;;11.03;100.00;100293.47;5011475;28;20418;-75
2022/05/06 10:50:40;;;;;;;1.00;0.75;;;;;;;11.03;100.00;100298.66;5010412;28;20050;-74
2022/05/06 10:53:08;;;;;;;0.60;0.40;;;;;;;11.03;100.00;100309.88;5010614;28;20136;-74
2022/05/06 10:55:38;;;;;;;1.15;0.50;;;;;;;11.02;100.00;100300.38;5011053;28;20510;-75
2022/05/06 10:58:08;;;;;;;1.40;0.45;;;;;;;11.02;100.00;100302.09;5010588;28;20064;-74
2022/05/06 11:00:41;;;;;;;8.70;0.82;;;;;;;11.02;100.00;100294.31;5010493;28;20064;-74
2022/05/06 11:03:10;;;;;;;1.55;0.57;;;;;;;11.01;100.00;100280.50;5029734;28;20143;-75
2022/05/06 11:05:39;;;;;;;2.35;0.60;;;;;;;11.03;100.00;100268.44;5030585;28;20702;-74
2022/05/06 11:08:09;;;;;;;1.00;0.68;;;;;;;11.04;100.00;100270.22;5030652;28;20697;-74
2022/05/06 11:10:39;;;;;;;6.45;1.20;;;;;;;11.01;100.00;100269.25;5030826;28;20061;-74
2022/05/06 11:13:09;;;;;;;2.28;0.93;;;;;;;10.98;100.00;100272.66;5029898;28;20048;-75
2022/05/06 11:15:38;;;;;;;3.10;0.93;;;;;;;10.98;100.00;100280.44;5030771;28;20057;-75
2022/05/06 11:18:07;;;;;;;1.33;0.70;;;;;;;10.96;100.00;100282.13;5030769;28;20049;-75
2022/05/06 11:20:37;;;;;;;3.47;0.70;;;;;;;10.97;100.00;100273.53;5030045;28;20503;-75
2022/05/06 11:23:06;;;;;;;2.13;1.10;;;;;;;10.98;100.00;100270.09;5030178;28;20068;-75
2022/05/06 11:25:35;;;;;;;2.35;0.60;;;;;;;11.01;100.00;100262.38;5030174;28;20065;-75
2022/05/06 11:28:13;;;;;;;1.02;0.70;;;;;;;10.92;100.00;100232.84;5029861;28;20060;-76
2022/05/06 11:30:45;;;;;;;2.60;0.50;;;;;;;11.01;100.00;100249.41;5029943;28;20049;-74
2022/05/06 11:33:24;;;;;;;4.85;0.63;;;;;;;11.02;100.00;100247.72;5029981;28;20057;-75
2022/05/06 11:35:53;;;;;;;3.05;1.02;;;;;;;11.03;100.00;100247.75;5029383;28;20045;-75
2022/05/06 11:38:31;;;;;;;2.75;0.90;;;;;;;11.04;100.00;100233.97;5029982;28;20408;-75
2022/05/06 11:41:08;;;;;;;1.55;0.90;;;;;;;11.03;100.00;100228.75;5008426;28;20049;-75
2022/05/06 11:43:39;;;;;;;3.05;0.80;;;;;;;11.00;100.00;100231.28;5010329;28;20114;-75
2022/05/06 11:48:52;;;;;;;1.63;0.90;;;;;;;11.00;100.00;100211.44;5010367;28;20095;-76
2022/05/06 11:51:24;;;;;;;1.15;0.70;;;;;;;10.99;100.00;100194.16;5009908;28;20054;-75
2022/05/06 11:53:54;;;;;;;0.82;0.63;;;;;;;10.98;100.00;100195.00;5009987;28;20046;-75
2022/05/06 11:56:23;;;;;;;2.72;0.93;;;;;;;10.98;100.00;100207.09;5009742;28;20058;-75
2022/05/06 11:58:56;;;;;;;1.17;1.08;;;;;;;10.88;100.00;100186.19;5009648;28;20574;-75
2022/05/06 12:01:31;;;;;;;1.13;0.82;;;;;;;10.99;100.00;100201.91;5009920;28;20129;-74
2022/05/06 12:04:02;;;;;;;2.53;1.13;;;;;;;11.00;100.00;100195.03;5009525;28;20090;-76
2022/05/06 12:06:32;;;;;;;0.95;0.70;;;;;;;11.01;100.00;100186.41;5009686;28;20168;-75
2022/05/06 12:09:10;;;;;;;1.52;0.70;;;;;;;11.01;100.00;100189.88;5010224;28;20136;-76
2022/05/06 12:11:39;;;;;;;0.73;0.50;;;;;;;10.98;100.00;100191.56;5025838;28;20291;-75
2022/05/06 12:14:10;;;;;;;2.17;0.80;;;;;;;11.01;100.00;100189.88;5016465;28;20042;-74
2022/05/06 12:16:38;;;;;;;2.10;0.70;;;;;;;11.00;100.00;100190.72;5010780;28;20050;-74
2022/05/06 12:19:06;;;;;;;0.77;0.57;;;;;;;11.01;100.00;100189.00;5010661;28;20060;-75
2022/05/06 12:21:38;;;;;;;1.17;0.55;;;;;;;11.01;100.00;100184.69;5010689;28;20136;-75
2022/05/06 12:24:07;;;;;;;1.90;0.70;;;;;;;11.01;100.00;100195.06;5011260;28;20053;-76